Time;durP1;ratioP1;P1;durP2;ratioP2;P2;SDS_P1;SDS_P2;PMS_P1;PMS_P2;Temp;Humidity;BMP_temperature;BMP_pressure;BME280_temperature;BME280_humidity;BME280_pressure;Samples;Min_cycle;Max_cycle;Signal;HPM_P1;HPM_P2
2023/10/08 00:00:39;;;;;;;11.60;4.78;;;18.20;99.90;;;;;;5044579;28;20528;-57
2023/10/08 00:02:46;;;;;;;8.93;4.18;;;18.20;99.90;;;;;;5050445;28;20049;-58
2023/10/08 00:05:17;;;;;;;8.05;4.60;;;18.20;99.90;;;;;;5065076;28;20048;-57
2023/10/08 00:07:43;;;;;;;8.88;4.15;;;18.20;99.90;;;;;;5061738;28;20049;-57
2023/10/08 00:10:10;;;;;;;9.35;4.07;;;18.20;99.90;;;;;;5055937;28;20057;-57
2023/10/08 00:12:37;;;;;;;9.68;4.15;;;18.20;99.90;;;;;;5050906;28;20107;-57
2023/10/08 00:15:07;;;;;;;12.73;4.50;;;18.20;99.90;;;;;;5049157;28;20102;-57
2023/10/08 00:17:33;;;;;;;11.48;4.88;;;18.10;99.90;;;;;;5050451;28;20106;-57
2023/10/08 00:20:00;;;;;;;9.55;3.67;;;18.20;99.90;;;;;;5052765;28;20072;-57
2023/10/08 00:22:29;;;;;;;8.00;3.75;;;18.20;99.90;;;;;;5047530;28;20048;-57
2023/10/08 00:24:58;;;;;;;7.55;4.05;;;18.10;99.90;;;;;;5063710;28;20052;-58
2023/10/08 00:27:24;;;;;;;11.63;4.45;;;18.10;99.90;;;;;;5035106;28;20045;-57
2023/10/08 00:29:51;;;;;;;8.27;3.95;;;18.10;99.90;;;;;;5059936;28;20076;-57
2023/10/08 00:32:18;;;;;;;8.23;3.72;;;18.10;99.90;;;;;;5046867;28;20165;-57
2023/10/08 00:34:46;;;;;;;11.15;4.20;;;18.10;99.90;;;;;;5056266;28;20526;-57
2023/10/08 00:37:15;;;;;;;9.30;4.32;;;18.00;99.90;;;;;;5069259;28;20103;-58
2023/10/08 00:39:43;;;;;;;12.07;4.15;;;18.10;99.90;;;;;;5059173;28;20052;-58
2023/10/08 00:42:12;;;;;;;8.70;4.15;;;18.00;99.90;;;;;;5049294;28;20122;-61
2023/10/08 00:44:47;;;;;;;8.50;4.60;;;18.10;99.90;;;;;;5050323;28;20127;-59
2023/10/08 00:47:16;;;;;;;10.52;4.10;;;18.00;99.90;;;;;;5041325;28;20041;-58
2023/10/08 00:57:23;;;;;;;9.68;3.63;;;18.00;99.90;;;;;;5067786;28;20090;-57
2023/10/08 00:59:53;;;;;;;7.00;4.00;;;18.00;99.90;;;;;;5062228;28;20048;-57
2023/10/08 01:02:24;;;;;;;10.70;4.90;;;18.00;99.90;;;;;;5063392;28;20076;-57
2023/10/08 01:04:51;;;;;;;9.00;4.28;;;17.90;99.90;;;;;;5063752;28;20218;-57
2023/10/08 01:07:18;;;;;;;9.02;3.95;;;17.90;99.90;;;;;;5053460;28;20048;-58
2023/10/08 01:09:51;;;;;;;12.20;4.10;;;17.80;99.90;;;;;;5049787;28;20040;-56
2023/10/08 01:14:49;;;;;;;10.70;4.40;;;17.80;99.90;;;;;;5061925;28;20064;-57
2023/10/08 01:17:19;;;;;;;9.23;3.80;;;17.80;99.90;;;;;;5060486;28;20055;-57
2023/10/08 01:19:56;;;;;;;9.52;3.85;;;17.80;99.90;;;;;;5042194;28;20056;-57
2023/10/08 01:22:25;;;;;;;7.20;3.65;;;17.80;99.90;;;;;;5056940;28;20071;-57
2023/10/08 01:24:51;;;;;;;7.03;3.88;;;17.70;99.90;;;;;;5052219;28;20171;-57
2023/10/08 01:27:23;;;;;;;8.93;4.20;;;17.70;99.90;;;;;;5040273;28;20557;-57
2023/10/08 01:29:51;;;;;;;8.15;4.40;;;17.60;99.90;;;;;;5054375;28;20041;-56
2023/10/08 01:32:19;;;;;;;7.35;3.50;;;17.60;99.90;;;;;;5054241;28;20138;-57
2023/10/08 01:34:46;;;;;;;12.55;4.78;;;17.60;99.90;;;;;;5065046;28;20056;-56
2023/10/08 01:37:14;;;;;;;9.13;4.22;;;17.50;99.90;;;;;;5059590;28;20081;-56
2023/10/08 01:39:42;;;;;;;8.63;4.10;;;17.40;99.90;;;;;;5047827;28;20142;-56
2023/10/08 01:42:18;;;;;;;14.35;5.38;;;17.40;99.90;;;;;;5052583;28;20045;-56
2023/10/08 01:44:48;;;;;;;11.70;4.60;;;17.30;99.90;;;;;;5052854;28;20476;-57
2023/10/08 01:47:16;;;;;;;9.40;3.95;;;17.30;99.90;;;;;;5059474;28;20050;-57
2023/10/08 01:49:44;;;;;;;7.05;4.28;;;17.30;99.90;;;;;;5049728;28;20080;-57
2023/10/08 01:52:21;;;;;;;8.88;4.60;;;17.30;99.90;;;;;;5055912;28;20552;-56
2023/10/08 01:54:48;;;;;;;9.85;4.40;;;17.30;99.90;;;;;;5051347;28;20419;-57
2023/10/08 01:57:16;;;;;;;6.78;3.47;;;17.30;99.90;;;;;;5052835;28;20051;-57
2023/10/08 01:59:44;;;;;;;9.23;3.92;;;17.30;99.90;;;;;;5059115;28;20072;-58
2023/10/08 02:02:12;;;;;;;10.93;4.90;;;17.30;99.90;;;;;;5059933;28;20056;-57
2023/10/08 02:04:39;;;;;;;9.35;3.70;;;17.40;99.90;;;;;;5048325;28;20419;-56
2023/10/08 02:07:13;;;;;;;7.80;4.38;;;17.40;99.90;;;;;;5029942;28;20047;-56
2023/10/08 02:09:40;;;;;;;9.27;4.13;;;17.40;99.90;;;;;;5060183;28;20101;-56
2023/10/08 02:12:08;;;;;;;7.22;4.15;;;17.40;99.90;;;;;;5059634;28;20072;-57
2023/10/08 02:14:35;;;;;;;8.90;3.72;;;17.40;99.90;;;;;;5057794;28;20045;-58
2023/10/08 02:17:06;;;;;;;8.52;3.55;;;17.40;99.90;;;;;;5048694;28;20156;-56
2023/10/08 02:19:34;;;;;;;9.82;5.10;;;17.40;99.90;;;;;;5060889;28;20050;-56
2023/10/08 02:22:02;;;;;;;13.02;4.47;;;17.40;99.90;;;;;;5060864;28;20048;-59
2023/10/08 02:24:30;;;;;;;7.50;4.35;;;17.30;99.90;;;;;;5055548;28;20056;-58
2023/10/08 02:26:57;;;;;;;13.52;3.63;;;17.20;99.90;;;;;;5050028;28;20037;-59
2023/10/08 02:29:26;;;;;;;10.10;4.93;;;17.30;99.90;;;;;;5057059;28;20071;-58
2023/10/08 02:31:53;;;;;;;8.90;4.13;;;17.30;99.90;;;;;;5061041;28;20060;-57
2023/10/08 02:34:21;;;;;;;8.75;3.28;;;17.20;99.90;;;;;;5054334;28;20126;-58
2023/10/08 02:36:47;;;;;;;8.00;3.70;;;17.20;99.90;;;;;;5055682;28;20049;-57
2023/10/08 02:39:21;;;;;;;7.82;3.75;;;17.20;99.90;;;;;;5034435;28;20495;-58
2023/10/08 02:41:48;;;;;;;9.60;4.20;;;17.20;99.90;;;;;;5043881;28;20524;-58
2023/10/08 02:44:16;;;;;;;6.85;3.50;;;17.20;99.90;;;;;;5054600;28;20084;-57
2023/10/08 02:46:47;;;;;;;7.88;3.72;;;17.20;99.90;;;;;;5064733;28;20047;-58
2023/10/08 02:49:24;;;;;;;13.80;4.00;;;17.20;99.90;;;;;;5059458;28;20148;-57
2023/10/08 02:51:54;;;;;;;9.13;3.67;;;17.20;99.90;;;;;;5038989;28;20059;-58
2023/10/08 02:54:31;;;;;;;7.00;3.92;;;17.30;99.90;;;;;;5051733;28;20045;-57
2023/10/08 02:57:04;;;;;;;8.18;3.50;;;17.30;99.90;;;;;;5071051;28;20053;-58
2023/10/08 02:59:41;;;;;;;11.02;3.95;;;17.30;99.90;;;;;;5052964;28;20048;-57
2023/10/08 03:02:21;;;;;;;6.25;3.70;;;17.30;99.90;;;;;;5028392;28;20049;-57
2023/10/08 03:04:51;;;;;;;9.60;3.53;;;17.30;99.90;;;;;;5066991;28;20084;-58
2023/10/08 03:07:21;;;;;;;10.02;4.38;;;17.20;99.90;;;;;;5071075;28;20045;-57
2023/10/08 03:10:03;;;;;;;10.07;3.75;;;17.20;99.90;;;;;;5046336;28;20154;-58
2023/10/08 03:12:32;;;;;;;8.30;3.42;;;17.00;99.90;;;;;;5050848;28;20060;-57
2023/10/08 03:15:13;;;;;;;6.65;3.95;;;17.10;99.90;;;;;;5037949;28;20274;-58
2023/10/08 03:17:49;;;;;;;7.15;3.60;;;17.00;99.90;;;;;;5056507;28;20056;-58
2023/10/08 03:23:05;;;;;;;11.27;3.45;;;17.00;99.90;;;;;;5056413;28;20051;-58
2023/10/08 03:25:41;;;;;;;10.18;4.50;;;16.90;99.90;;;;;;5063339;28;20056;-57
2023/10/08 03:28:09;;;;;;;8.88;4.18;;;16.90;99.90;;;;;;5021760;28;20160;-58
2023/10/08 03:30:47;;;;;;;10.45;3.38;;;16.90;99.90;;;;;;5062723;28;20075;-57
2023/10/08 03:33:22;;;;;;;7.80;3.50;;;16.80;99.90;;;;;;5051831;28;20555;-56
2023/10/08 03:35:52;;;;;;;10.80;4.13;;;16.70;99.90;;;;;;5064583;28;20128;-58
2023/10/08 03:38:28;;;;;;;11.73;4.05;;;16.60;99.90;;;;;;5053214;28;20056;-58
2023/10/08 03:41:09;;;;;;;8.10;4.47;;;16.60;99.90;;;;;;5061809;28;20109;-57
2023/10/08 03:43:47;;;;;;;11.65;4.05;;;16.50;99.90;;;;;;5050443;28;20049;-57
2023/10/08 03:46:16;;;;;;;10.38;3.58;;;16.50;99.90;;;;;;5044579;28;20107;-58
2023/10/08 03:48:45;;;;;;;8.60;3.65;;;16.50;99.90;;;;;;5050224;28;20048;-58
2023/10/08 03:51:12;;;;;;;9.13;4.13;;;16.50;99.90;;;;;;5061151;28;20045;-57
2023/10/08 03:53:57;;;;;;;7.47;3.95;;;16.40;99.90;;;;;;5053168;28;20140;-58
2023/10/08 03:56:31;;;;;;;5.47;2.85;;;16.40;99.90;;;;;;5038200;28;20575;-59
2023/10/08 03:59:12;;;;;;;11.95;4.07;;;16.40;99.90;;;;;;5070284;28;20048;-56
2023/10/08 04:01:41;;;;;;;11.15;3.83;;;16.40;99.90;;;;;;5055916;28;20453;-57
2023/10/08 04:04:14;;;;;;;9.30;4.53;;;16.40;99.90;;;;;;5058718;28;20137;-58
2023/10/08 04:06:51;;;;;;;9.73;4.28;;;16.40;99.90;;;;;;5049889;28;20087;-58
2023/10/08 04:14:19;;;;;;;7.72;3.58;;;16.30;99.90;;;;;;5050160;28;20041;-57
2023/10/08 04:16:46;;;;;;;8.88;4.43;;;16.30;99.90;;;;;;5053033;28;20076;-58
2023/10/08 04:19:12;;;;;;;8.00;3.90;;;16.30;99.90;;;;;;5051649;28;20491;-57
2023/10/08 04:21:42;;;;;;;9.88;3.97;;;16.30;99.90;;;;;;5058954;28;20565;-57
2023/10/08 04:24:11;;;;;;;7.22;4.30;;;16.40;99.90;;;;;;5057326;28;20135;-57
2023/10/08 04:26:40;;;;;;;9.00;4.18;;;16.40;99.90;;;;;;5034533;28;20049;-56
2023/10/08 04:29:08;;;;;;;10.45;4.65;;;16.30;99.90;;;;;;5052395;28;20083;-58
2023/10/08 04:31:46;;;;;;;6.97;3.83;;;16.30;99.90;;;;;;5059678;28;20059;-58
2023/10/08 04:34:16;;;;;;;5.78;3.10;;;16.40;99.90;;;;;;5063231;28;20135;-56
2023/10/08 04:36:46;;;;;;;8.38;4.32;;;16.40;99.90;;;;;;5054798;28;20036;-58
2023/10/08 04:39:21;;;;;;;11.02;4.43;;;16.30;99.90;;;;;;5064728;28;20045;-56
2023/10/08 04:41:53;;;;;;;7.00;3.40;;;16.20;99.90;;;;;;5064480;28;20094;-56
2023/10/08 04:44:21;;;;;;;7.72;3.50;;;16.20;99.90;;;;;;5055595;28;20045;-57
2023/10/08 04:46:52;;;;;;;6.63;3.83;;;16.20;99.90;;;;;;5052541;28;20477;-56
2023/10/08 04:49:28;;;;;;;9.35;5.05;;;16.20;99.90;;;;;;5043225;28;20230;-57
2023/10/08 04:51:59;;;;;;;11.27;5.50;;;16.20;99.90;;;;;;5023469;28;20228;-56
2023/10/08 04:54:32;;;;;;;10.25;4.13;;;16.10;99.90;;;;;;5057102;28;20045;-56
2023/10/08 04:57:06;;;;;;;7.37;3.87;;;16.10;99.90;;;;;;5051204;28;20102;-56
2023/10/08 04:59:33;;;;;;;7.50;3.50;;;16.00;99.90;;;;;;5049953;28;20085;-58
2023/10/08 05:05:21;;;;;;;13.30;4.40;;;15.80;99.90;;;;;;5053050;28;20052;-56
2023/10/08 05:23:53;;;;;;;7.70;3.45;;;15.70;99.90;;;;;;5040482;28;20676;-55
2023/10/08 05:28:46;;;;;;;7.78;3.97;;;15.60;99.90;;;;;;5058606;28;20041;-56
2023/10/08 05:33:59;;;;;;;11.15;3.90;;;15.50;99.90;;;;;;5047942;28;20519;-56
2023/10/08 05:40:21;;;;;;;9.40;4.65;;;15.40;99.90;;;;;;5049445;28;20405;-56
2023/10/08 05:42:19;;;;;;;6.90;4.10;;;15.30;99.90;;;;;;5014904;28;20046;-56
2023/10/08 05:45:13;;;;;;;10.98;4.97;;;15.20;99.90;;;;;;5052535;28;20040;-56
2023/10/08 05:52:53;;;;;;;10.40;4.32;;;15.10;99.90;;;;;;5051718;28;20071;-58
2023/10/08 05:55:25;;;;;;;9.18;4.78;;;15.10;99.90;;;;;;5054218;28;20393;-57
2023/10/08 05:58:12;;;;;;;8.45;4.10;;;15.10;99.90;;;;;;5057882;28;20114;-55
2023/10/08 06:03:35;;;;;;;10.38;4.50;;;15.10;99.90;;;;;;5047762;28;20492;-56
2023/10/08 06:11:36;;;;;;;7.40;4.18;;;15.00;99.90;;;;;;5056686;28;20634;-56
2023/10/08 06:14:13;;;;;;;10.48;4.15;;;14.90;99.90;;;;;;5048567;28;20063;-56
2023/10/08 06:16:44;;;;;;;10.55;3.95;;;14.90;99.90;;;;;;5055835;28;20365;-55
2023/10/08 06:19:11;;;;;;;8.35;3.72;;;15.00;99.90;;;;;;5065782;28;20048;-56
2023/10/08 06:21:41;;;;;;;6.30;3.47;;;15.00;99.90;;;;;;5056259;28;20052;-56
2023/10/08 06:24:09;;;;;;;10.55;4.20;;;15.00;99.90;;;;;;5049359;28;20103;-58
2023/10/08 06:26:42;;;;;;;6.88;4.13;;;15.00;99.90;;;;;;5053726;28;20048;-56
2023/10/08 06:29:27;;;;;;;7.60;4.07;;;15.00;99.90;;;;;;5060128;28;20049;-55
2023/10/08 06:31:56;;;;;;;8.90;4.10;;;15.00;99.90;;;;;;5056127;28;20099;-57
2023/10/08 06:34:27;;;;;;;10.77;4.93;;;15.00;99.90;;;;;;5059771;28;20416;-55
2023/10/08 06:36:55;;;;;;;7.05;3.45;;;15.00;99.90;;;;;;5065001;28;20106;-57
2023/10/08 06:39:33;;;;;;;8.80;4.93;;;15.00;99.90;;;;;;5031702;28;20700;-56
2023/10/08 06:42:00;;;;;;;8.00;3.88;;;15.00;99.90;;;;;;5056026;28;20119;-56
2023/10/08 06:44:27;;;;;;;12.27;4.10;;;15.00;99.90;;;;;;5053277;28;20051;-57
2023/10/08 06:46:56;;;;;;;10.80;3.97;;;15.10;99.90;;;;;;5068994;28;20063;-57
2023/10/08 06:49:23;;;;;;;8.20;4.53;;;15.10;99.90;;;;;;5074192;28;20585;-57
2023/10/08 06:51:51;;;;;;;8.77;4.15;;;15.20;99.90;;;;;;5070982;28;20048;-57
2023/10/08 06:54:18;;;;;;;10.25;3.30;;;15.30;99.90;;;;;;5037339;28;20044;-55
2023/10/08 06:56:51;;;;;;;8.05;3.70;;;15.30;99.90;;;;;;5061720;28;20048;-57
2023/10/08 06:59:22;;;;;;;7.97;3.53;;;15.40;99.90;;;;;;5056177;28;20056;-58
2023/10/08 07:01:51;;;;;;;9.68;4.30;;;15.40;99.90;;;;;;5036120;28;20045;-57
2023/10/08 07:04:18;;;;;;;6.90;3.53;;;15.50;99.90;;;;;;5013073;28;20055;-58
2023/10/08 07:06:46;;;;;;;10.52;3.92;;;15.60;99.90;;;;;;5050191;28;20425;-58
2023/10/08 07:09:22;;;;;;;10.05;4.07;;;15.70;99.90;;;;;;5052269;28;20171;-58
2023/10/08 07:11:54;;;;;;;9.05;4.30;;;15.70;99.90;;;;;;5035263;28;20057;-58
2023/10/08 07:14:28;;;;;;;7.03;3.10;;;15.70;99.90;;;;;;5055942;28;20102;-56
2023/10/08 07:16:59;;;;;;;9.82;4.47;;;15.70;99.90;;;;;;5051608;28;20416;-57
2023/10/08 07:19:40;;;;;;;8.20;3.70;;;15.80;99.90;;;;;;5049847;28;20084;-57
2023/10/08 07:22:23;;;;;;;10.45;4.35;;;15.80;99.90;;;;;;5052794;28;20118;-57
2023/10/08 07:24:50;;;;;;;7.68;4.22;;;15.80;99.90;;;;;;5056931;28;20079;-56
2023/10/08 07:27:29;;;;;;;8.25;4.15;;;15.90;99.90;;;;;;5053447;28;20068;-57
2023/10/08 07:29:59;;;;;;;9.68;4.35;;;15.90;99.90;;;;;;5052825;28;20053;-60
2023/10/08 07:32:26;;;;;;;9.88;4.40;;;16.00;99.90;;;;;;5052052;28;20049;-58
2023/10/08 07:35:03;;;;;;;9.13;4.07;;;16.00;99.90;;;;;;5047938;28;20141;-58
2023/10/08 07:37:32;;;;;;;10.95;3.78;;;16.10;99.90;;;;;;5026621;28;20227;-58
2023/10/08 07:40:00;;;;;;;9.45;3.80;;;16.10;99.90;;;;;;5058853;28;20128;-60
2023/10/08 07:42:27;;;;;;;11.93;4.43;;;16.20;99.90;;;;;;5048867;28;20107;-57
2023/10/08 07:44:55;;;;;;;10.68;3.95;;;16.30;99.90;;;;;;5060147;28;20048;-58
2023/10/08 07:47:22;;;;;;;8.38;4.22;;;16.30;99.90;;;;;;5047972;28;20049;-57
2023/10/08 07:49:52;;;;;;;8.43;3.95;;;16.40;99.90;;;;;;5058559;28;20068;-59
2023/10/08 07:52:18;;;;;;;9.65;3.58;;;16.50;99.90;;;;;;5037053;28;20044;-58
2023/10/08 07:54:45;;;;;;;9.02;3.67;;;16.60;99.90;;;;;;5050722;28;20113;-58
2023/10/08 07:57:14;;;;;;;12.13;4.93;;;16.70;99.90;;;;;;5031047;28;20348;-58
2023/10/08 07:59:41;;;;;;;9.52;4.25;;;16.80;99.90;;;;;;5058202;28;20197;-57
2023/10/08 08:02:12;;;;;;;5.80;3.33;;;16.80;99.90;;;;;;5030291;28;20566;-58
2023/10/08 08:04:39;;;;;;;9.68;3.70;;;16.90;99.90;;;;;;5061583;28;20530;-56
2023/10/08 08:07:07;;;;;;;12.20;4.30;;;17.00;99.90;;;;;;5059327;28;20140;-57
2023/10/08 08:09:37;;;;;;;12.50;4.43;;;17.00;99.90;;;;;;5030161;28;20050;-58
2023/10/08 08:12:10;;;;;;;11.07;4.35;;;17.10;99.90;;;;;;5057259;28;20045;-57
2023/10/08 08:14:41;;;;;;;9.52;3.65;;;17.20;99.90;;;;;;5044932;28;20142;-58
2023/10/08 08:17:14;;;;;;;12.93;3.67;;;17.30;99.90;;;;;;5023987;28;20068;-57
2023/10/08 08:19:41;;;;;;;7.60;3.83;;;17.40;99.90;;;;;;5048821;28;20221;-57
2023/10/08 08:22:15;;;;;;;8.07;3.45;;;17.50;99.90;;;;;;5051864;28;20045;-58
2023/10/08 08:24:45;;;;;;;15.50;5.20;;;17.50;99.90;;;;;;5036582;28;20052;-58
2023/10/08 08:27:23;;;;;;;8.88;3.65;;;17.60;99.90;;;;;;5039507;28;20045;-57
2023/10/08 08:29:55;;;;;;;6.05;3.28;;;17.70;99.90;;;;;;5054924;28;20045;-57
2023/10/08 08:32:23;;;;;;;9.32;3.53;;;17.80;99.90;;;;;;5055036;28;20095;-57
2023/10/08 08:34:53;;;;;;;8.55;3.53;;;17.80;99.90;;;;;;5024262;28;20051;-57
2023/10/08 08:37:22;;;;;;;13.18;3.25;;;17.90;99.90;;;;;;5033998;28;20432;-57
2023/10/08 08:39:49;;;;;;;5.28;3.28;;;18.00;99.90;;;;;;5047634;28;20055;-58
2023/10/08 08:42:18;;;;;;;6.89;2.89;;;18.10;99.90;;;;;;4687683;28;10000892;-58
2023/10/08 08:44:48;;;;;;;7.35;3.40;;;18.20;99.90;;;;;;5016995;28;20049;-59
2023/10/08 08:47:17;;;;;;;10.63;3.63;;;18.50;99.90;;;;;;5033148;28;20056;-58
2023/10/08 08:49:45;;;;;;;6.45;3.03;;;18.80;99.90;;;;;;5040981;28;20491;-58
2023/10/08 08:52:15;;;;;;;9.88;3.85;;;19.10;99.90;;;;;;5045861;28;20491;-58
2023/10/08 08:54:44;;;;;;;7.55;2.90;;;19.40;99.90;;;;;;5045646;28;20172;-58
2023/10/08 08:57:14;;;;;;;12.27;3.80;;;19.60;99.90;;;;;;5050415;28;20149;-58
2023/10/08 08:59:50;;;;;;;10.07;2.92;;;19.80;99.90;;;;;;5021566;28;20165;-59
2023/10/08 09:02:18;;;;;;;9.02;3.90;;;20.00;99.90;;;;;;5030490;28;20113;-58
2023/10/08 09:04:47;;;;;;;6.10;2.92;;;20.10;99.90;;;;;;5024791;28;20579;-58
2023/10/08 09:07:14;;;;;;;8.60;3.22;;;20.20;99.90;;;;;;5035713;28;20124;-58
2023/10/08 09:09:41;;;;;;;9.40;3.35;;;20.10;99.90;;;;;;5030733;28;20045;-59
2023/10/08 09:12:10;;;;;;;17.40;3.72;;;20.10;99.90;;;;;;5043155;28;20053;-59
2023/10/08 09:14:39;;;;;;;8.82;3.33;;;20.10;99.90;;;;;;5039680;28;20045;-58
2023/10/08 09:17:06;;;;;;;9.15;3.05;;;20.10;99.90;;;;;;5038818;28;20049;-58
2023/10/08 09:19:39;;;;;;;8.85;3.00;;;20.00;99.90;;;;;;5014289;28;20053;-58
2023/10/08 09:22:14;;;;;;;7.03;2.78;;;19.90;99.90;;;;;;5050101;28;20048;-58
2023/10/08 09:24:42;;;;;;;5.78;3.35;;;19.90;99.90;;;;;;5038001;28;20229;-58
2023/10/08 09:27:14;;;;;;;5.40;2.95;;;19.90;99.90;;;;;;5048784;28;20197;-59
2023/10/08 09:29:41;;;;;;;7.38;3.15;;;19.90;99.90;;;;;;5030337;28;20496;-58
2023/10/08 09:32:09;;;;;;;8.23;3.65;;;19.90;99.90;;;;;;5043010;28;20045;-58
2023/10/08 09:34:36;;;;;;;11.32;3.50;;;19.90;99.90;;;;;;5055086;28;20048;-59
2023/10/08 09:37:03;;;;;;;9.93;3.67;;;19.90;99.90;;;;;;5034629;28;20565;-58
2023/10/08 09:39:33;;;;;;;8.07;2.92;;;20.00;99.90;;;;;;5012456;28;20049;-58
2023/10/08 09:42:06;;;;;;;11.10;4.32;;;20.10;99.90;;;;;;5043133;28;20059;-58
2023/10/08 09:44:34;;;;;;;10.35;3.97;;;20.10;99.90;;;;;;5053518;28;20057;-58
2023/10/08 09:47:05;;;;;;;11.95;3.85;;;20.10;99.90;;;;;;5029555;28;20488;-58
2023/10/08 09:49:41;;;;;;;10.52;3.72;;;20.20;99.90;;;;;;5062601;28;20057;-58
2023/10/08 09:52:10;;;;;;;8.38;3.83;;;20.30;99.90;;;;;;5040407;28;20041;-58
2023/10/08 09:54:51;;;;;;;11.23;4.25;;;20.30;99.90;;;;;;5038303;28;20503;-58
2023/10/08 09:57:18;;;;;;;8.75;3.42;;;20.40;99.90;;;;;;5015244;28;20053;-58
2023/10/08 09:59:46;;;;;;;7.70;3.08;;;20.50;99.90;;;;;;5018875;28;20080;-58
2023/10/08 10:02:13;;;;;;;21.48;4.60;;;20.50;99.90;;;;;;5016796;28;20362;-59
2023/10/08 10:04:44;;;;;;;7.55;3.88;;;20.60;99.90;;;;;;5007413;28;20045;-58
2023/10/08 10:07:16;;;;;;;5.68;3.40;;;20.50;99.90;;;;;;5041058;28;20098;-56
2023/10/08 10:09:44;;;;;;;9.73;2.95;;;20.60;99.90;;;;;;5047678;28;20111;-57
2023/10/08 10:12:11;;;;;;;7.28;2.72;;;20.50;99.90;;;;;;5032775;28;20106;-57
2023/10/08 10:14:42;;;;;;;9.10;3.10;;;20.50;99.90;;;;;;5044606;28;20065;-57
2023/10/08 10:17:14;;;;;;;6.25;3.35;;;20.50;99.90;;;;;;5031691;28;20053;-56
2023/10/08 10:20:00;;;;;;;7.40;2.85;;;20.70;99.90;;;;;;5014572;28;20049;-57
2023/10/08 10:22:34;;;;;;;11.52;3.92;;;20.70;99.90;;;;;;5039073;28;20048;-56
2023/10/08 10:25:14;;;;;;;8.63;3.70;;;20.70;99.90;;;;;;5037705;28;20109;-55
2023/10/08 10:27:43;;;;;;;6.13;3.17;;;20.80;99.90;;;;;;5046323;28;20415;-56
2023/10/08 10:30:10;;;;;;;6.32;3.22;;;20.90;99.90;;;;;;5018014;28;20496;-57
2023/10/08 10:32:37;;;;;;;5.13;2.75;;;20.90;99.90;;;;;;5033050;28;20059;-55
2023/10/08 10:35:11;;;;;;;7.32;3.50;;;21.00;99.90;;;;;;5042873;28;20041;-56
2023/10/08 10:37:41;;;;;;;7.13;3.95;;;21.10;99.90;;;;;;5038717;28;20049;-55
2023/10/08 10:40:12;;;;;;;9.23;3.60;;;21.10;99.90;;;;;;5034261;28;20047;-56
2023/10/08 10:42:42;;;;;;;9.20;3.78;;;21.10;99.90;;;;;;5035774;28;20056;-57
2023/10/08 10:45:36;;;;;;;10.60;3.92;;;21.20;99.90;;;;;;5025843;28;20372;-57
2023/10/08 10:53:27;;;;;;;7.50;3.97;;;21.40;99.90;;;;;;5032946;28;20484;-58
2023/10/08 10:56:05;;;;;;;12.63;4.50;;;21.40;99.90;;;;;;5038427;28;20080;-57
2023/10/08 10:58:39;;;;;;;15.40;4.50;;;21.40;99.90;;;;;;5036385;28;20084;-57
2023/10/08 11:01:23;;;;;;;9.90;3.80;;;21.50;99.90;;;;;;5039208;28;20041;-59
2023/10/08 11:03:57;;;;;;;11.98;4.95;;;21.50;99.90;;;;;;5018023;28;20072;-56
2023/10/08 11:06:25;;;;;;;10.00;3.78;;;21.50;99.90;;;;;;5047256;28;20513;-57
2023/10/08 11:08:52;;;;;;;8.85;4.25;;;21.70;99.90;;;;;;5017976;28;20043;-58
2023/10/08 11:11:27;;;;;;;7.30;3.53;;;21.70;99.90;;;;;;5056252;28;20800;-58
2023/10/08 11:14:00;;;;;;;9.65;3.67;;;21.90;99.90;;;;;;5037031;28;20060;-62
2023/10/08 11:16:37;;;;;;;8.82;2.72;;;22.00;99.90;;;;;;5041334;28;20048;-61
2023/10/08 11:19:06;;;;;;;11.35;4.07;;;22.10;99.90;;;;;;5021297;28;20041;-58
2023/10/08 11:21:50;;;;;;;12.18;3.75;;;22.30;99.90;;;;;;5037759;28;20504;-58
2023/10/08 11:24:33;;;;;;;9.57;3.67;;;22.30;99.90;;;;;;5015494;28;20392;-57
2023/10/08 11:27:15;;;;;;;6.90;3.55;;;22.50;99.90;;;;;;5007935;28;20411;-57
2023/10/08 11:29:44;;;;;;;5.93;3.20;;;22.50;99.90;;;;;;5036439;28;20556;-59
2023/10/08 11:32:17;;;;;;;9.15;4.50;;;22.60;99.90;;;;;;5053633;28;20091;-57
2023/10/08 11:34:49;;;;;;;5.28;3.40;;;22.70;99.90;;;;;;5039080;28;20053;-57
2023/10/08 11:37:35;;;;;;;6.83;3.87;;;22.80;99.90;;;;;;5045308;28;20052;-61
2023/10/08 11:40:13;;;;;;;9.77;3.78;;;22.90;99.90;;;;;;5044730;28;20045;-58
2023/10/08 11:42:43;;;;;;;5.60;2.92;;;23.00;99.90;;;;;;5052953;28;20502;-57
2023/10/08 11:45:26;;;;;;;7.55;3.63;;;23.00;99.90;;;;;;5041704;28;20048;-58
2023/10/08 11:47:56;;;;;;;;;;;23.10;99.90;;;;;;5052990;28;20102;-58
2023/10/08 11:50:30;;;;;;;10.98;3.72;;;23.20;99.90;;;;;;5032410;28;19978;-58
2023/10/08 11:53:03;;;;;;;;;;;23.40;99.90;;;;;;5037356;28;20534;-57
2023/10/08 11:55:35;;;;;;;6.93;3.47;;;23.40;99.90;;;;;;5045549;28;20019;-56
2023/10/08 11:58:17;;;;;;;7.15;2.95;;;23.40;99.90;;;;;;5029540;28;20057;-58
2023/10/08 12:00:44;;;;;;;10.15;3.47;;;23.50;99.90;;;;;;5039080;28;20074;-59
2023/10/08 12:03:19;;;;;;;6.18;3.90;;;23.60;99.90;;;;;;5042552;28;20045;-59
2023/10/08 12:05:58;;;;;;;6.07;3.05;;;23.70;99.90;;;;;;5031056;28;20590;-59
2023/10/08 12:08:27;;;;;;;6.70;3.63;;;23.70;99.90;;;;;;5055074;28;20445;-59
2023/10/08 12:10:54;;;;;;;7.05;3.30;;;23.70;99.90;;;;;;5042215;28;20064;-59
2023/10/08 12:13:25;;;;;;;5.53;3.35;;;23.70;99.90;;;;;;5025867;28;20044;-59
2023/10/08 12:16:05;;;;;;;6.43;2.90;;;23.80;99.90;;;;;;5021960;28;20050;-58
2023/10/08 12:18:39;;;;;;;8.15;3.15;;;23.70;99.90;;;;;;5044206;28;20052;-59
2023/10/08 12:21:15;;;;;;;8.07;3.10;;;23.70;99.90;;;;;;5029091;28;20127;-58
2023/10/08 12:23:49;;;;;;;7.50;2.83;;;23.70;99.90;;;;;;5051538;28;20535;-58
2023/10/08 12:26:18;;;;;;;4.45;2.58;;;23.70;99.90;;;;;;5022047;28;20045;-58
2023/10/08 12:28:48;;;;;;;6.25;3.30;;;23.70;99.80;;;;;;5034214;28;20455;-58
2023/10/08 12:31:24;;;;;;;7.60;2.67;;;23.80;99.90;;;;;;5036119;28;20481;-59
2023/10/08 12:33:53;;;;;;;6.95;2.67;;;23.80;99.90;;;;;;5049032;28;20058;-59
2023/10/08 12:36:23;;;;;;;6.60;3.33;;;23.80;99.90;;;;;;5030515;28;20130;-58
2023/10/08 12:38:57;;;;;;;5.53;2.55;;;23.90;99.90;;;;;;5040262;28;20518;-58
2023/10/08 12:41:26;;;;;;;8.98;2.83;;;23.90;99.90;;;;;;5013999;28;20037;-58
2023/10/08 12:43:53;;;;;;;5.65;2.85;;;23.90;98.70;;;;;;5031067;28;20083;-58
2023/10/08 12:46:24;;;;;;;5.13;3.05;;;24.00;98.60;;;;;;5045687;28;20037;-58
2023/10/08 12:48:54;;;;;;;6.47;3.63;;;24.00;99.00;;;;;;5035963;28;20096;-58
2023/10/08 12:51:24;;;;;;;8.15;3.10;;;24.00;98.80;;;;;;5038698;28;20049;-58
2023/10/08 12:53:58;;;;;;;6.63;3.30;;;24.00;99.50;;;;;;5023661;28;20324;-59
2023/10/08 12:56:32;;;;;;;6.35;3.88;;;24.00;98.60;;;;;;5045016;28;20041;-58
2023/10/08 12:58:59;;;;;;;7.05;3.47;;;24.10;98.10;;;;;;5046833;28;20064;-58
2023/10/08 13:01:28;;;;;;;9.25;3.17;;;24.10;99.10;;;;;;5042090;28;20049;-58
2023/10/08 13:04:00;;;;;;;9.48;3.17;;;24.10;98.60;;;;;;5051342;28;20063;-58
2023/10/08 13:06:31;;;;;;;7.70;2.55;;;24.10;98.20;;;;;;5032409;28;20133;-58
2023/10/08 13:08:58;;;;;;;6.45;2.60;;;24.00;98.30;;;;;;5046655;28;20059;-59
2023/10/08 13:11:26;;;;;;;4.80;2.75;;;24.00;99.10;;;;;;5029738;28;20471;-58
2023/10/08 13:13:56;;;;;;;7.45;2.90;;;24.00;99.00;;;;;;5034489;28;20452;-58
2023/10/08 13:16:31;;;;;;;7.47;3.17;;;24.00;99.00;;;;;;5037131;28;20136;-58
2023/10/08 13:18:58;;;;;;;4.70;3.10;;;24.10;98.60;;;;;;5039906;28;20048;-58
2023/10/08 13:21:27;;;;;;;6.68;2.83;;;24.10;98.90;;;;;;5023950;28;20095;-59
2023/10/08 13:23:57;;;;;;;8.98;2.92;;;24.10;99.20;;;;;;5009645;28;20199;-60
2023/10/08 13:26:24;;;;;;;7.00;3.22;;;24.10;99.40;;;;;;5032283;28;20049;-58
2023/10/08 13:28:51;;;;;;;9.30;2.83;;;24.10;99.40;;;;;;5045907;28;20053;-59
2023/10/08 13:31:19;;;;;;;6.03;2.72;;;24.10;98.60;;;;;;5056509;28;20056;-58
2023/10/08 13:33:48;;;;;;;6.65;2.63;;;24.20;99.20;;;;;;5028108;28;20259;-59
2023/10/08 13:36:16;;;;;;;7.32;2.70;;;24.20;99.10;;;;;;5040470;28;20399;-58
2023/10/08 13:38:46;;;;;;;5.82;2.92;;;24.20;99.60;;;;;;5036531;28;20071;-59
2023/10/08 13:41:16;;;;;;;8.18;3.17;;;24.30;99.50;;;;;;5051102;28;20040;-58
2023/10/08 13:43:46;;;;;;;6.35;3.10;;;24.40;99.20;;;;;;5053392;28;20064;-58
2023/10/08 13:46:14;;;;;;;4.60;2.85;;;24.50;99.20;;;;;;5025306;28;20111;-58
2023/10/08 13:48:46;;;;;;;6.85;3.33;;;24.50;98.30;;;;;;5045880;28;20419;-58
2023/10/08 13:51:14;;;;;;;7.65;3.05;;;24.50;99.10;;;;;;5051051;28;20131;-58
2023/10/08 13:53:45;;;;;;;7.00;3.40;;;24.60;98.60;;;;;;5025981;28;20054;-58
2023/10/08 13:56:12;;;;;;;8.07;4.20;;;24.60;99.00;;;;;;5046253;28;20056;-58
2023/10/08 13:58:46;;;;;;;6.63;3.42;;;24.60;98.80;;;;;;5038246;28;20393;-57
2023/10/08 14:01:19;;;;;;;8.95;4.93;;;24.60;99.00;;;;;;5045128;28;20055;-58
2023/10/08 14:03:47;;;;;;;;;;;24.70;99.50;;;;;;5058941;28;20422;-57
2023/10/08 14:06:16;;;;;;;6.80;4.45;;;24.70;98.80;;;;;;5042292;28;19921;-57
2023/10/08 14:08:51;;;;;;;6.50;3.55;;;24.70;99.30;;;;;;5046174;28;20118;-59